sensor_id;sensor_type;location;lat;lon;timestamp;temperature;humidity
9410;DHT22;4744;52.576;13.568;2023-05-13T00:01:54;13.50;1.00
9410;DHT22;4744;52.576;13.568;2023-05-13T00:04:21;13.50;1.00
9410;DHT22;4744;52.576;13.568;2023-05-13T00:06:48;13.50;1.00
9410;DHT22;4744;52.576;13.568;2023-05-13T00:09:15;13.40;1.00
9410;DHT22;4744;52.576;13.568;2023-05-13T00:11:43;13.40;1.00
9410;DHT22;4744;52.576;13.568;2023-05-13T00:14:10;13.40;1.00
9410;DHT22;4744;52.576;13.568;2023-05-13T00:16:37;13.40;1.00
9410;DHT22;4744;52.576;13.568;2023-05-13T00:19:04;13.30;1.00
9410;DHT22;4744;52.576;13.568;2023-05-13T00:21:31;13.30;1.00
9410;DHT22;4744;52.576;13.568;2023-05-13T00:23:58;13.30;1.00
9410;DHT22;4744;52.576;13.568;2023-05-13T00:26:25;13.30;1.00
9410;DHT22;4744;52.576;13.568;2023-05-13T00:28:53;13.20;1.00
9410;DHT22;4744;52.576;13.568;2023-05-13T00:31:20;13.20;1.00
9410;DHT22;4744;52.576;13.568;2023-05-13T00:33:47;13.20;1.00
9410;DHT22;4744;52.576;13.568;2023-05-13T00:36:14;13.20;1.00
9410;DHT22;4744;52.576;13.568;2023-05-13T00:38:41;13.20;1.00
9410;DHT22;4744;52.576;13.568;2023-05-13T00:41:09;13.10;1.00
9410;DHT22;4744;52.576;13.568;2023-05-13T00:43:37;13.10;1.00
9410;DHT22;4744;52.576;13.568;2023-05-13T00:46:05;13.10;1.00
9410;DHT22;4744;52.576;13.568;2023-05-13T00:48:32;13.00;1.00
9410;DHT22;4744;52.576;13.568;2023-05-13T00:50:59;13.00;1.00
9410;DHT22;4744;52.576;13.568;2023-05-13T00:53:28;12.90;1.00
9410;DHT22;4744;52.576;13.568;2023-05-13T00:55:56;12.90;1.00
9410;DHT22;4744;52.576;13.568;2023-05-13T00:58:22;12.80;1.00
9410;DHT22;4744;52.576;13.568;2023-05-13T01:00:56;12.80;1.00
9410;DHT22;4744;52.576;13.568;2023-05-13T01:03:38;12.80;1.00
9410;DHT22;4744;52.576;13.568;2023-05-13T01:06:10;12.70;1.00
9410;DHT22;4744;52.576;13.568;2023-05-13T01:08:49;12.70;1.00
9410;DHT22;4744;52.576;13.568;2023-05-13T01:11:22;12.70;1.00
9410;DHT22;4744;52.576;13.568;2023-05-13T01:13:56;12.70;1.00
9410;DHT22;4744;52.576;13.568;2023-05-13T01:16:29;12.70;1.00
9410;DHT22;4744;52.576;13.568;2023-05-13T01:18:59;12.70;1.00
9410;DHT22;4744;52.576;13.568;2023-05-13T01:21:28;12.70;1.00
9410;DHT22;4744;52.576;13.568;2023-05-13T01:24:00;12.60;1.00
9410;DHT22;4744;52.576;13.568;2023-05-13T01:26:26;12.60;1.00
9410;DHT22;4744;52.576;13.568;2023-05-13T01:28:54;12.60;1.00
9410;DHT22;4744;52.576;13.568;2023-05-13T01:31:22;12.60;1.00
9410;DHT22;4744;52.576;13.568;2023-05-13T01:33:49;12.60;1.00
9410;DHT22;4744;52.576;13.568;2023-05-13T01:36:16;12.60;1.00
9410;DHT22;4744;52.576;13.568;2023-05-13T01:38:45;12.60;1.00
9410;DHT22;4744;52.576;13.568;2023-05-13T01:41:13;12.60;1.00
9410;DHT22;4744;52.576;13.568;2023-05-13T01:43:39;12.50;1.00
9410;DHT22;4744;52.576;13.568;2023-05-13T01:46:11;12.50;1.00
9410;DHT22;4744;52.576;13.568;2023-05-13T01:48:38;12.50;1.00
9410;DHT22;4744;52.576;13.568;2023-05-13T01:51:05;12.50;1.00
9410;DHT22;4744;52.576;13.568;2023-05-13T01:53:32;12.40;1.00
9410;DHT22;4744;52.576;13.568;2023-05-13T01:56:01;12.40;1.00
9410;DHT22;4744;52.576;13.568;2023-05-13T01:58:28;12.30;1.00
9410;DHT22;4744;52.576;13.568;2023-05-13T02:00:55;12.30;1.00
9410;DHT22;4744;52.576;13.568;2023-05-13T02:03:21;12.20;1.00
9410;DHT22;4744;52.576;13.568;2023-05-13T02:05:48;12.20;1.00
9410;DHT22;4744;52.576;13.568;2023-05-13T02:08:15;12.10;1.00
9410;DHT22;4744;52.576;13.568;2023-05-13T02:10:42;12.10;1.00
9410;DHT22;4744;52.576;13.568;2023-05-13T02:13:10;12.10;1.00
9410;DHT22;4744;52.576;13.568;2023-05-13T02:15:37;12.10;1.00
9410;DHT22;4744;52.576;13.568;2023-05-13T02:18:05;12.00;1.00
9410;DHT22;4744;52.576;13.568;2023-05-13T02:20:32;12.00;1.00
9410;DHT22;4744;52.576;13.568;2023-05-13T02:22:59;12.00;1.00
9410;DHT22;4744;52.576;13.568;2023-05-13T02:25:26;11.90;1.00
9410;DHT22;4744;52.576;13.568;2023-05-13T02:27:53;11.90;1.00
9410;DHT22;4744;52.576;13.568;2023-05-13T02:30:21;11.90;1.00
9410;DHT22;4744;52.576;13.568;2023-05-13T02:32:51;11.80;1.00
9410;DHT22;4744;52.576;13.568;2023-05-13T02:35:18;11.80;1.00
9410;DHT22;4744;52.576;13.568;2023-05-13T02:37:47;11.70;1.00
9410;DHT22;4744;52.576;13.568;2023-05-13T02:40:14;11.70;1.00
9410;DHT22;4744;52.576;13.568;2023-05-13T02:42:41;11.70;1.00
9410;DHT22;4744;52.576;13.568;2023-05-13T02:45:09;11.70;1.00
9410;DHT22;4744;52.576;13.568;2023-05-13T02:47:38;11.60;1.00
9410;DHT22;4744;52.576;13.568;2023-05-13T02:50:06;11.60;1.00
9410;DHT22;4744;52.576;13.568;2023-05-13T02:52:34;11.50;1.00
9410;DHT22;4744;52.576;13.568;2023-05-13T02:55:01;11.50;1.00
9410;DHT22;4744;52.576;13.568;2023-05-13T02:57:28;11.50;1.00
9410;DHT22;4744;52.576;13.568;2023-05-13T02:59:55;11.40;1.00
9410;DHT22;4744;52.576;13.568;2023-05-13T03:02:22;11.30;1.00
9410;DHT22;4744;52.576;13.568;2023-05-13T03:04:50;11.30;1.00
9410;DHT22;4744;52.576;13.568;2023-05-13T03:07:18;11.20;1.00
9410;DHT22;4744;52.576;13.568;2023-05-13T03:09:45;11.20;1.00
9410;DHT22;4744;52.576;13.568;2023-05-13T03:12:12;11.20;1.00
9410;DHT22;4744;52.576;13.568;2023-05-13T03:14:39;11.20;1.00
9410;DHT22;4744;52.576;13.568;2023-05-13T03:17:07;11.20;1.00
9410;DHT22;4744;52.576;13.568;2023-05-13T03:19:35;11.20;1.00
9410;DHT22;4744;52.576;13.568;2023-05-13T03:22:04;11.20;1.00
9410;DHT22;4744;52.576;13.568;2023-05-13T03:24:31;11.20;1.00
9410;DHT22;4744;52.576;13.568;2023-05-13T03:26:58;11.20;1.00
9410;DHT22;4744;52.576;13.568;2023-05-13T03:29:25;11.10;1.00
9410;DHT22;4744;52.576;13.568;2023-05-13T03:31:52;11.10;1.00
9410;DHT22;4744;52.576;13.568;2023-05-13T03:34:19;11.10;1.00
9410;DHT22;4744;52.576;13.568;2023-05-13T03:36:46;11.10;1.00
9410;DHT22;4744;52.576;13.568;2023-05-13T03:39:15;11.00;1.00
9410;DHT22;4744;52.576;13.568;2023-05-13T03:41:41;11.00;1.00
9410;DHT22;4744;52.576;13.568;2023-05-13T03:44:10;11.00;1.00
9410;DHT22;4744;52.576;13.568;2023-05-13T03:46:37;11.00;1.00
9410;DHT22;4744;52.576;13.568;2023-05-13T03:49:04;11.00;1.00
9410;DHT22;4744;52.576;13.568;2023-05-13T03:51:30;11.00;1.00
9410;DHT22;4744;52.576;13.568;2023-05-13T03:53:58;11.00;1.00
9410;DHT22;4744;52.576;13.568;2023-05-13T03:56:27;11.00;1.00
9410;DHT22;4744;52.576;13.568;2023-05-13T03:58:54;11.00;1.00
9410;DHT22;4744;52.576;13.568;2023-05-13T04:01:21;11.00;1.00
9410;DHT22;4744;52.576;13.568;2023-05-13T04:03:48;10.90;1.00
9410;DHT22;4744;52.576;13.568;2023-05-13T04:06:15;10.90;1.00
9410;DHT22;4744;52.576;13.568;2023-05-13T04:08:42;10.90;1.00
9410;DHT22;4744;52.576;13.568;2023-05-13T04:11:09;10.90;1.00
9410;DHT22;4744;52.576;13.568;2023-05-13T04:13:37;11.00;1.00
9410;DHT22;4744;52.576;13.568;2023-05-13T04:16:05;11.00;1.00
9410;DHT22;4744;52.576;13.568;2023-05-13T04:18:32;11.00;1.00
9410;DHT22;4744;52.576;13.568;2023-05-13T04:21:04;10.90;1.00
9410;DHT22;4744;52.576;13.568;2023-05-13T04:23:31;11.00;1.00
9410;DHT22;4744;52.576;13.568;2023-05-13T04:25:58;10.90;1.00
9410;DHT22;4744;52.576;13.568;2023-05-13T04:28:25;11.00;1.00
9410;DHT22;4744;52.576;13.568;2023-05-13T04:30:53;11.10;1.00
9410;DHT22;4744;52.576;13.568;2023-05-13T04:33:20;11.10;1.00
9410;DHT22;4744;52.576;13.568;2023-05-13T04:35:47;11.20;1.00
9410;DHT22;4744;52.576;13.568;2023-05-13T04:38:14;11.20;1.00
9410;DHT22;4744;52.576;13.568;2023-05-13T04:40:42;11.30;1.00
9410;DHT22;4744;52.576;13.568;2023-05-13T04:43:09;11.40;1.00
9410;DHT22;4744;52.576;13.568;2023-05-13T04:45:36;11.50;1.00
9410;DHT22;4744;52.576;13.568;2023-05-13T04:48:06;11.60;1.00
9410;DHT22;4744;52.576;13.568;2023-05-13T04:50:33;11.60;1.00
9410;DHT22;4744;52.576;13.568;2023-05-13T04:52:59;11.70;1.00
9410;DHT22;4744;52.576;13.568;2023-05-13T04:55:26;11.90;1.00
9410;DHT22;4744;52.576;13.568;2023-05-13T04:57:53;12.00;1.00
9410;DHT22;4744;52.576;13.568;2023-05-13T05:00:20;12.10;1.00
9410;DHT22;4744;52.576;13.568;2023-05-13T05:02:47;12.20;1.00
9410;DHT22;4744;52.576;13.568;2023-05-13T05:05:16;12.30;1.00
9410;DHT22;4744;52.576;13.568;2023-05-13T05:07:42;12.50;1.00
9410;DHT22;4744;52.576;13.568;2023-05-13T05:10:10;12.60;1.00
9410;DHT22;4744;52.576;13.568;2023-05-13T05:12:36;12.70;1.00
9410;DHT22;4744;52.576;13.568;2023-05-13T05:15:04;12.80;1.00
9410;DHT22;4744;52.576;13.568;2023-05-13T05:17:35;13.00;1.00
9410;DHT22;4744;52.576;13.568;2023-05-13T05:20:03;13.10;1.00
9410;DHT22;4744;52.576;13.568;2023-05-13T05:22:31;13.20;1.00
9410;DHT22;4744;52.576;13.568;2023-05-13T05:24:59;13.30;1.00
9410;DHT22;4744;52.576;13.568;2023-05-13T05:27:26;13.50;1.00
9410;DHT22;4744;52.576;13.568;2023-05-13T05:29:53;13.60;1.00
9410;DHT22;4744;52.576;13.568;2023-05-13T05:32:20;13.70;1.00
9410;DHT22;4744;52.576;13.568;2023-05-13T05:34:47;13.80;1.00
9410;DHT22;4744;52.576;13.568;2023-05-13T05:37:14;13.90;1.00
9410;DHT22;4744;52.576;13.568;2023-05-13T05:39:42;14.10;1.00
9410;DHT22;4744;52.576;13.568;2023-05-13T05:42:10;14.10;1.00
9410;DHT22;4744;52.576;13.568;2023-05-13T05:44:37;14.20;1.00
9410;DHT22;4744;52.576;13.568;2023-05-13T05:47:04;14.30;1.00
9410;DHT22;4744;52.576;13.568;2023-05-13T05:49:31;14.40;1.00
9410;DHT22;4744;52.576;13.568;2023-05-13T05:51:58;14.50;1.00
9410;DHT22;4744;52.576;13.568;2023-05-13T05:54:25;14.60;1.00
9410;DHT22;4744;52.576;13.568;2023-05-13T05:56:53;14.70;1.00
9410;DHT22;4744;52.576;13.568;2023-05-13T05:59:20;14.80;1.00
9410;DHT22;4744;52.576;13.568;2023-05-13T06:01:47;14.90;1.00
9410;DHT22;4744;52.576;13.568;2023-05-13T06:04:14;15.00;1.00
9410;DHT22;4744;52.576;13.568;2023-05-13T06:06:41;15.10;1.00
9410;DHT22;4744;52.576;13.568;2023-05-13T06:09:08;15.30;1.00
9410;DHT22;4744;52.576;13.568;2023-05-13T06:11:35;15.40;1.00
9410;DHT22;4744;52.576;13.568;2023-05-13T06:14:03;15.50;1.00
9410;DHT22;4744;52.576;13.568;2023-05-13T06:16:31;15.60;1.00
9410;DHT22;4744;52.576;13.568;2023-05-13T06:18:57;15.70;1.00
9410;DHT22;4744;52.576;13.568;2023-05-13T06:21:24;15.80;1.00
9410;DHT22;4744;52.576;13.568;2023-05-13T06:23:51;15.90;1.00
9410;DHT22;4744;52.576;13.568;2023-05-13T06:26:18;16.00;1.00
9410;DHT22;4744;52.576;13.568;2023-05-13T06:28:45;16.00;1.00
9410;DHT22;4744;52.576;13.568;2023-05-13T06:31:13;16.10;1.00
9410;DHT22;4744;52.576;13.568;2023-05-13T06:33:40;16.30;1.00
9410;DHT22;4744;52.576;13.568;2023-05-13T06:36:07;16.40;1.00
9410;DHT22;4744;52.576;13.568;2023-05-13T06:38:34;16.50;1.00
9410;DHT22;4744;52.576;13.568;2023-05-13T06:41:01;16.50;1.00
9410;DHT22;4744;52.576;13.568;2023-05-13T06:43:28;16.60;1.00
9410;DHT22;4744;52.576;13.568;2023-05-13T06:45:55;16.70;1.00
9410;DHT22;4744;52.576;13.568;2023-05-13T06:48:24;16.80;1.00
9410;DHT22;4744;52.576;13.568;2023-05-13T06:50:51;16.80;1.00
9410;DHT22;4744;52.576;13.568;2023-05-13T06:53:18;16.80;1.00
9410;DHT22;4744;52.576;13.568;2023-05-13T06:55:45;16.90;1.00
9410;DHT22;4744;52.576;13.568;2023-05-13T06:58:12;17.00;1.00
9410;DHT22;4744;52.576;13.568;2023-05-13T07:00:39;17.10;1.00
9410;DHT22;4744;52.576;13.568;2023-05-13T07:03:06;17.20;1.00
9410;DHT22;4744;52.576;13.568;2023-05-13T07:05:35;17.30;1.00
9410;DHT22;4744;52.576;13.568;2023-05-13T07:08:03;17.40;1.00
9410;DHT22;4744;52.576;13.568;2023-05-13T07:10:31;17.50;1.00
9410;DHT22;4744;52.576;13.568;2023-05-13T07:12:59;17.60;1.00
9410;DHT22;4744;52.576;13.568;2023-05-13T07:15:26;17.70;1.00
9410;DHT22;4744;52.576;13.568;2023-05-13T07:17:53;17.90;1.00
9410;DHT22;4744;52.576;13.568;2023-05-13T07:20:21;17.90;1.00
9410;DHT22;4744;52.576;13.568;2023-05-13T07:22:50;18.00;1.00
9410;DHT22;4744;52.576;13.568;2023-05-13T07:25:17;18.10;1.00
9410;DHT22;4744;52.576;13.568;2023-05-13T07:27:44;18.30;1.00
9410;DHT22;4744;52.576;13.568;2023-05-13T07:30:12;18.40;1.00
9410;DHT22;4744;52.576;13.568;2023-05-13T07:32:40;18.50;1.00
9410;DHT22;4744;52.576;13.568;2023-05-13T07:35:07;18.70;1.00
9410;DHT22;4744;52.576;13.568;2023-05-13T07:37:34;18.80;1.00
9410;DHT22;4744;52.576;13.568;2023-05-13T07:40:05;18.90;1.00
9410;DHT22;4744;52.576;13.568;2023-05-13T07:42:32;19.10;1.00
9410;DHT22;4744;52.576;13.568;2023-05-13T07:44:59;19.20;1.00
9410;DHT22;4744;52.576;13.568;2023-05-13T07:47:26;19.30;1.00
9410;DHT22;4744;52.576;13.568;2023-05-13T07:49:53;19.40;1.00
9410;DHT22;4744;52.576;13.568;2023-05-13T07:52:20;19.50;1.00
9410;DHT22;4744;52.576;13.568;2023-05-13T07:54:47;19.70;1.00
9410;DHT22;4744;52.576;13.568;2023-05-13T07:57:16;19.80;1.00
9410;DHT22;4744;52.576;13.568;2023-05-13T07:59:43;19.90;1.00
9410;DHT22;4744;52.576;13.568;2023-05-13T08:02:10;20.00;1.00
9410;DHT22;4744;52.576;13.568;2023-05-13T08:04:37;20.10;1.00
9410;DHT22;4744;52.576;13.568;2023-05-13T08:07:04;20.20;1.00
9410;DHT22;4744;52.576;13.568;2023-05-13T08:09:31;20.30;1.00
9410;DHT22;4744;52.576;13.568;2023-05-13T08:11:58;20.40;1.00
9410;DHT22;4744;52.576;13.568;2023-05-13T08:14:26;20.40;1.00
9410;DHT22;4744;52.576;13.568;2023-05-13T08:16:54;20.50;1.00
9410;DHT22;4744;52.576;13.568;2023-05-13T08:19:21;20.50;1.00
9410;DHT22;4744;52.576;13.568;2023-05-13T08:21:47;20.50;1.00
9410;DHT22;4744;52.576;13.568;2023-05-13T08:24:14;20.70;1.00
9410;DHT22;4744;52.576;13.568;2023-05-13T08:26:41;21.30;1.00
9410;DHT22;4744;52.576;13.568;2023-05-13T08:29:08;22.10;1.00
9410;DHT22;4744;52.576;13.568;2023-05-13T08:31:40;22.60;1.00
9410;DHT22;4744;52.576;13.568;2023-05-13T08:34:07;22.40;1.00
9410;DHT22;4744;52.576;13.568;2023-05-13T08:36:34;22.00;1.00
9410;DHT22;4744;52.576;13.568;2023-05-13T08:39:01;22.00;1.00
9410;DHT22;4744;52.576;13.568;2023-05-13T08:41:28;21.90;1.00
9410;DHT22;4744;52.576;13.568;2023-05-13T08:43:57;21.80;1.00
9410;DHT22;4744;52.576;13.568;2023-05-13T08:46:25;21.60;1.00
9410;DHT22;4744;52.576;13.568;2023-05-13T08:48:54;21.60;1.00
9410;DHT22;4744;52.576;13.568;2023-05-13T08:51:21;21.80;1.00
9410;DHT22;4744;52.576;13.568;2023-05-13T08:53:49;21.90;1.00
9410;DHT22;4744;52.576;13.568;2023-05-13T08:56:17;21.90;1.00
9410;DHT22;4744;52.576;13.568;2023-05-13T08:58:44;22.30;1.00
9410;DHT22;4744;52.576;13.568;2023-05-13T09:01:11;22.60;1.00
9410;DHT22;4744;52.576;13.568;2023-05-13T09:03:48;22.50;1.00
9410;DHT22;4744;52.576;13.568;2023-05-13T09:06:19;22.10;1.00
9410;DHT22;4744;52.576;13.568;2023-05-13T09:08:47;22.00;1.00
9410;DHT22;4744;52.576;13.568;2023-05-13T09:11:14;21.90;1.00
9410;DHT22;4744;52.576;13.568;2023-05-13T09:13:42;21.90;1.00
9410;DHT22;4744;52.576;13.568;2023-05-13T09:16:09;21.90;1.00
9410;DHT22;4744;52.576;13.568;2023-05-13T09:18:38;21.90;1.00
9410;DHT22;4744;52.576;13.568;2023-05-13T09:21:25;22.00;1.00
9410;DHT22;4744;52.576;13.568;2023-05-13T09:24:05;21.90;1.00
9410;DHT22;4744;52.576;13.568;2023-05-13T09:26:34;22.00;1.00
9410;DHT22;4744;52.576;13.568;2023-05-13T09:29:17;22.10;1.00
9410;DHT22;4744;52.576;13.568;2023-05-13T09:31:46;22.10;1.00
9410;DHT22;4744;52.576;13.568;2023-05-13T09:34:14;22.20;1.00
9410;DHT22;4744;52.576;13.568;2023-05-13T09:36:42;22.30;1.00
9410;DHT22;4744;52.576;13.568;2023-05-13T09:39:10;22.40;1.00
9410;DHT22;4744;52.576;13.568;2023-05-13T09:41:38;22.60;1.00
9410;DHT22;4744;52.576;13.568;2023-05-13T09:44:05;22.60;1.00
9410;DHT22;4744;52.576;13.568;2023-05-13T09:46:33;22.70;1.00
9410;DHT22;4744;52.576;13.568;2023-05-13T09:49:00;22.70;1.00
9410;DHT22;4744;52.576;13.568;2023-05-13T09:51:30;22.80;1.00
9410;DHT22;4744;52.576;13.568;2023-05-13T09:54:03;22.80;1.00
9410;DHT22;4744;52.576;13.568;2023-05-13T09:56:32;22.70;1.00
9410;DHT22;4744;52.576;13.568;2023-05-13T09:59:00;22.70;1.00
9410;DHT22;4744;52.576;13.568;2023-05-13T10:01:27;22.80;1.00
9410;DHT22;4744;52.576;13.568;2023-05-13T10:03:55;22.70;1.00
9410;DHT22;4744;52.576;13.568;2023-05-13T10:06:25;22.70;1.00
9410;DHT22;4744;52.576;13.568;2023-05-13T10:08:53;22.80;1.00
9410;DHT22;4744;52.576;13.568;2023-05-13T10:11:23;22.80;1.00
9410;DHT22;4744;52.576;13.568;2023-05-13T10:13:54;22.90;1.00
9410;DHT22;4744;52.576;13.568;2023-05-13T10:16:23;23.10;1.00
9410;DHT22;4744;52.576;13.568;2023-05-13T10:18:51;23.00;1.00
9410;DHT22;4744;52.576;13.568;2023-05-13T10:21:18;22.90;1.00
9410;DHT22;4744;52.576;13.568;2023-05-13T10:23:45;22.70;1.00
9410;DHT22;4744;52.576;13.568;2023-05-13T10:26:13;22.70;1.00
9410;DHT22;4744;52.576;13.568;2023-05-13T10:28:42;22.70;1.00
9410;DHT22;4744;52.576;13.568;2023-05-13T10:31:09;22.70;1.00
9410;DHT22;4744;52.576;13.568;2023-05-13T10:33:36;22.90;1.00
9410;DHT22;4744;52.576;13.568;2023-05-13T10:36:15;23.00;1.00
9410;DHT22;4744;52.576;13.568;2023-05-13T10:39:04;23.10;1.00
9410;DHT22;4744;52.576;13.568;2023-05-13T10:44:34;23.10;1.00
9410;DHT22;4744;52.576;13.568;2023-05-13T10:47:02;23.30;1.00
9410;DHT22;4744;52.576;13.568;2023-05-13T10:49:32;23.60;1.00
9410;DHT22;4744;52.576;13.568;2023-05-13T10:52:03;23.60;1.00
9410;DHT22;4744;52.576;13.568;2023-05-13T10:54:36;23.70;1.00
9410;DHT22;4744;52.576;13.568;2023-05-13T10:57:04;23.50;1.00
9410;DHT22;4744;52.576;13.568;2023-05-13T10:59:31;23.50;1.00
9410;DHT22;4744;52.576;13.568;2023-05-13T11:02:02;23.50;1.00
9410;DHT22;4744;52.576;13.568;2023-05-13T11:04:57;23.50;1.00
9410;DHT22;4744;52.576;13.568;2023-05-13T11:07:27;23.50;1.00
9410;DHT22;4744;52.576;13.568;2023-05-13T11:09:55;23.50;1.00
9410;DHT22;4744;52.576;13.568;2023-05-13T11:12:22;23.70;1.00
9410;DHT22;4744;52.576;13.568;2023-05-13T11:14:49;23.70;1.00
9410;DHT22;4744;52.576;13.568;2023-05-13T11:17:18;23.80;1.00
9410;DHT22;4744;52.576;13.568;2023-05-13T11:19:47;23.70;1.00
9410;DHT22;4744;52.576;13.568;2023-05-13T11:22:15;23.80;1.00
9410;DHT22;4744;52.576;13.568;2023-05-13T11:24:44;23.90;1.00
9410;DHT22;4744;52.576;13.568;2023-05-13T11:27:13;24.00;1.00
9410;DHT22;4744;52.576;13.568;2023-05-13T11:29:47;24.00;1.00
9410;DHT22;4744;52.576;13.568;2023-05-13T11:32:55;24.10;1.00
9410;DHT22;4744;52.576;13.568;2023-05-13T11:35:23;24.30;1.00
9410;DHT22;4744;52.576;13.568;2023-05-13T11:37:51;24.30;1.00
9410;DHT22;4744;52.576;13.568;2023-05-13T11:40:22;24.30;1.00
9410;DHT22;4744;52.576;13.568;2023-05-13T11:42:49;24.10;1.00
9410;DHT22;4744;52.576;13.568;2023-05-13T11:45:16;24.20;1.00
9410;DHT22;4744;52.576;13.568;2023-05-13T11:47:43;24.20;1.00
9410;DHT22;4744;52.576;13.568;2023-05-13T11:50:19;24.00;1.00
9410;DHT22;4744;52.576;13.568;2023-05-13T11:52:50;24.10;1.00
9410;DHT22;4744;52.576;13.568;2023-05-13T11:55:24;24.20;1.00
9410;DHT22;4744;52.576;13.568;2023-05-13T11:57:52;24.30;1.00
9410;DHT22;4744;52.576;13.568;2023-05-13T12:00:24;24.30;1.00
9410;DHT22;4744;52.576;13.568;2023-05-13T12:02:52;24.30;1.00
9410;DHT22;4744;52.576;13.568;2023-05-13T12:05:20;24.30;1.00
9410;DHT22;4744;52.576;13.568;2023-05-13T12:07:47;24.40;1.00
9410;DHT22;4744;52.576;13.568;2023-05-13T12:10:15;24.50;1.00
9410;DHT22;4744;52.576;13.568;2023-05-13T12:12:43;24.50;1.00
9410;DHT22;4744;52.576;13.568;2023-05-13T12:15:12;24.60;1.00
9410;DHT22;4744;52.576;13.568;2023-05-13T12:17:39;24.50;1.00
9410;DHT22;4744;52.576;13.568;2023-05-13T12:20:08;24.50;1.00
9410;DHT22;4744;52.576;13.568;2023-05-13T12:22:48;24.30;1.00
9410;DHT22;4744;52.576;13.568;2023-05-13T12:25:45;24.00;1.00
9410;DHT22;4744;52.576;13.568;2023-05-13T12:28:14;23.90;1.00
9410;DHT22;4744;52.576;13.568;2023-05-13T12:30:49;23.90;1.00
9410;DHT22;4744;52.576;13.568;2023-05-13T12:33:18;23.70;1.00
9410;DHT22;4744;52.576;13.568;2023-05-13T12:35:46;23.60;1.00
9410;DHT22;4744;52.576;13.568;2023-05-13T12:38:16;23.40;1.00
9410;DHT22;4744;52.576;13.568;2023-05-13T12:40:44;23.40;1.00
9410;DHT22;4744;52.576;13.568;2023-05-13T12:43:11;23.40;1.00
9410;DHT22;4744;52.576;13.568;2023-05-13T12:45:40;23.40;1.00
9410;DHT22;4744;52.576;13.568;2023-05-13T12:48:06;23.60;1.00
9410;DHT22;4744;52.576;13.568;2023-05-13T12:50:34;23.70;1.00
9410;DHT22;4744;52.576;13.568;2023-05-13T12:53:00;23.80;1.00
9410;DHT22;4744;52.576;13.568;2023-05-13T12:55:29;23.70;1.00
9410;DHT22;4744;52.576;13.568;2023-05-13T12:57:59;23.70;1.00
9410;DHT22;4744;52.576;13.568;2023-05-13T13:00:26;23.80;1.00
9410;DHT22;4744;52.576;13.568;2023-05-13T13:02:54;23.80;1.00
9410;DHT22;4744;52.576;13.568;2023-05-13T13:05:22;23.70;1.00
9410;DHT22;4744;52.576;13.568;2023-05-13T13:07:49;23.60;1.00
9410;DHT22;4744;52.576;13.568;2023-05-13T13:10:18;23.60;1.00
9410;DHT22;4744;52.576;13.568;2023-05-13T13:12:46;23.70;1.00
9410;DHT22;4744;52.576;13.568;2023-05-13T13:15:14;23.60;1.00
9410;DHT22;4744;52.576;13.568;2023-05-13T13:17:41;23.60;1.00
9410;DHT22;4744;52.576;13.568;2023-05-13T13:20:08;23.70;1.00
9410;DHT22;4744;52.576;13.568;2023-05-13T13:22:35;23.70;1.00
9410;DHT22;4744;52.576;13.568;2023-05-13T13:25:03;23.80;1.00
9410;DHT22;4744;52.576;13.568;2023-05-13T13:27:32;23.90;1.00
9410;DHT22;4744;52.576;13.568;2023-05-13T13:30:00;23.90;1.00
9410;DHT22;4744;52.576;13.568;2023-05-13T13:32:28;23.90;1.00
9410;DHT22;4744;52.576;13.568;2023-05-13T13:34:54;23.80;1.00
9410;DHT22;4744;52.576;13.568;2023-05-13T13:37:22;23.80;1.00
9410;DHT22;4744;52.576;13.568;2023-05-13T13:39:49;23.80;1.00
9410;DHT22;4744;52.576;13.568;2023-05-13T13:42:16;23.70;1.00
9410;DHT22;4744;52.576;13.568;2023-05-13T13:44:43;23.70;1.00
9410;DHT22;4744;52.576;13.568;2023-05-13T13:47:11;23.80;1.00
9410;DHT22;4744;52.576;13.568;2023-05-13T13:49:38;23.80;1.00
9410;DHT22;4744;52.576;13.568;2023-05-13T13:52:05;23.70;1.00
9410;DHT22;4744;52.576;13.568;2023-05-13T13:54:32;23.60;1.00
9410;DHT22;4744;52.576;13.568;2023-05-13T13:56:59;23.60;1.00
9410;DHT22;4744;52.576;13.568;2023-05-13T13:59:26;23.60;1.00
9410;DHT22;4744;52.576;13.568;2023-05-13T14:01:53;23.50;1.00
9410;DHT22;4744;52.576;13.568;2023-05-13T14:04:22;23.60;1.00
9410;DHT22;4744;52.576;13.568;2023-05-13T14:06:55;23.60;1.00
9410;DHT22;4744;52.576;13.568;2023-05-13T14:09:22;23.70;1.00
9410;DHT22;4744;52.576;13.568;2023-05-13T14:11:49;23.60;1.00
9410;DHT22;4744;52.576;13.568;2023-05-13T14:14:16;23.50;1.00
9410;DHT22;4744;52.576;13.568;2023-05-13T14:16:44;23.40;1.00
9410;DHT22;4744;52.576;13.568;2023-05-13T14:19:11;23.10;1.00
9410;DHT22;4744;52.576;13.568;2023-05-13T14:21:39;22.80;1.00
9410;DHT22;4744;52.576;13.568;2023-05-13T14:24:06;22.60;1.00
9410;DHT22;4744;52.576;13.568;2023-05-13T14:26:36;22.60;1.00
9410;DHT22;4744;52.576;13.568;2023-05-13T14:29:03;22.70;1.00
9410;DHT22;4744;52.576;13.568;2023-05-13T14:31:30;22.80;1.00
9410;DHT22;4744;52.576;13.568;2023-05-13T14:33:57;22.80;1.00
9410;DHT22;4744;52.576;13.568;2023-05-13T14:36:24;23.00;1.00
9410;DHT22;4744;52.576;13.568;2023-05-13T14:38:53;23.10;1.00
9410;DHT22;4744;52.576;13.568;2023-05-13T14:41:20;23.30;1.00
9410;DHT22;4744;52.576;13.568;2023-05-13T14:43:47;23.30;1.00
9410;DHT22;4744;52.576;13.568;2023-05-13T14:46:14;23.40;1.00
9410;DHT22;4744;52.576;13.568;2023-05-13T14:48:41;23.40;1.00
9410;DHT22;4744;52.576;13.568;2023-05-13T14:51:08;23.40;1.00
9410;DHT22;4744;52.576;13.568;2023-05-13T14:53:37;23.40;1.00
9410;DHT22;4744;52.576;13.568;2023-05-13T14:56:05;23.50;1.00
9410;DHT22;4744;52.576;13.568;2023-05-13T14:58:32;23.50;1.00
9410;DHT22;4744;52.576;13.568;2023-05-13T15:00:59;23.40;1.00
9410;DHT22;4744;52.576;13.568;2023-05-13T15:03:26;23.40;1.00
9410;DHT22;4744;52.576;13.568;2023-05-13T15:05:53;23.40;1.00
9410;DHT22;4744;52.576;13.568;2023-05-13T15:08:20;23.40;1.00
9410;DHT22;4744;52.576;13.568;2023-05-13T15:10:47;23.30;1.00
9410;DHT22;4744;52.576;13.568;2023-05-13T15:13:16;23.30;1.00
9410;DHT22;4744;52.576;13.568;2023-05-13T15:15:43;23.30;1.00
9410;DHT22;4744;52.576;13.568;2023-05-13T15:18:10;23.00;1.00
9410;DHT22;4744;52.576;13.568;2023-05-13T15:20:37;22.90;1.00
9410;DHT22;4744;52.576;13.568;2023-05-13T15:23:04;22.80;1.00
9410;DHT22;4744;52.576;13.568;2023-05-13T15:25:31;22.80;1.00
9410;DHT22;4744;52.576;13.568;2023-05-13T15:27:58;22.90;1.00
9410;DHT22;4744;52.576;13.568;2023-05-13T15:30:27;22.90;1.00
9410;DHT22;4744;52.576;13.568;2023-05-13T15:32:54;22.80;1.00
9410;DHT22;4744;52.576;13.568;2023-05-13T15:35:21;22.60;1.00
9410;DHT22;4744;52.576;13.568;2023-05-13T15:37:48;22.50;1.00
9410;DHT22;4744;52.576;13.568;2023-05-13T15:40:15;22.50;1.00
9410;DHT22;4744;52.576;13.568;2023-05-13T15:42:42;22.60;1.00
9410;DHT22;4744;52.576;13.568;2023-05-13T15:45:09;22.60;1.00
9410;DHT22;4744;52.576;13.568;2023-05-13T15:47:37;22.50;1.00
9410;DHT22;4744;52.576;13.568;2023-05-13T15:50:05;22.40;1.00
9410;DHT22;4744;52.576;13.568;2023-05-13T15:52:32;22.30;1.00
9410;DHT22;4744;52.576;13.568;2023-05-13T15:54:59;22.30;1.00
9410;DHT22;4744;52.576;13.568;2023-05-13T15:57:26;22.20;1.00
9410;DHT22;4744;52.576;13.568;2023-05-13T15:59:53;22.00;1.00
9410;DHT22;4744;52.576;13.568;2023-05-13T16:02:19;21.90;1.00
9410;DHT22;4744;52.576;13.568;2023-05-13T16:04:48;21.80;1.00
9410;DHT22;4744;52.576;13.568;2023-05-13T16:07:15;21.70;1.00
9410;DHT22;4744;52.576;13.568;2023-05-13T16:09:42;21.60;1.00
9410;DHT22;4744;52.576;13.568;2023-05-13T16:12:09;21.50;1.00